Weather History for KGHG - December, 2012

Change the Weather History Date:

Friday, December 28, 2012

  Actual Average (KPYM) Record (KPYM)
Temperature  
Mean Temperature 34 °F -  
Max Temperature 37 °F 37 °F 59 °F (1949)
Min Temperature 30 °F 18 °F 2 °F (1989)
Degree Days  
Heating Degree Days 32    
Moisture  
Dew Point 25 °F    
Average Humidity 71    
Maximum Humidity 87    
Minimum Humidity 56    
Precipitation  
Precipitation 0.00 in - - ()
Sea Level Pressure  
Sea Level Pressure 29.87 in    
Wind  
Wind Speed 9 mph (West)    
Max Wind Speed 15 mph    
Max Gust Speed 28 mph    
Visibility 10 miles    
Events      
Averages and records for this station are not official NWS values.
T = Trace of Precipitation, MM = Missing Value Source: NWS Daily Summary

Daily Weather History Graph

Daily Weather History Graph

Search for Another Location

Airport or City:

Trip Planner

Search our weather history database for the weather conditions in past years. The results will help you decide how hot, cold, wet, or windy it might be!

Date:

Astronomy

Dec. 28, 2012 Rise Set
Actual Time 7:10 AM EST 4:18 PM EST
Civil Twilight 6:38 AM EST 4:50 PM EST
Nautical Twilight 6:03 AM EST 5:25 PM EST
Astronomical Twilight 5:29 AM EST 5:59 PM EST
Moon 4:53 PM EST 7:01 AM EST
Length of Visible Light 10h 11m
Length of Day
9h 08m
Full, 100% of the Moon is Illuminated
Dec 28
Full
Jan 4
Last Quarter
Jan 11
New
Jan 18
First Quarter
Jan 26
Full

Hourly Weather History & Observations

Time (EST) Temp. Windchill Dew Point Humidity Pressure Visibility Wind Dir Wind Speed Gust Speed Precip Events Conditions
12:15 AM 33.8 °F 25.8 °F 28.4 °F 81% 29.61 in 10.0 mi WNW 10.4 mph 20.7 mph N/A   Drizzle
12:35 AM 33.8 °F 25.8 °F 28.4 °F 81% 29.62 in 10.0 mi NW 10.4 mph 20.7 mph N/A   Light Drizzle
12:55 AM 33.8 °F 27.0 °F 30.2 °F 87% 29.62 in 10.0 mi WNW 8.1 mph 17.3 mph N/A   Light Drizzle
1:15 AM 33.8 °F 27.0 °F 30.2 °F 87% 29.63 in 10.0 mi WNW 8.1 mph 19.6 mph N/A   Light Drizzle
1:35 AM 33.8 °F 27.0 °F 30.2 °F 87% 29.65 in 10.0 mi West 8.1 mph 16.1 mph N/A   Light Drizzle
1:55 AM 33.8 °F 26.4 °F 30.2 °F 87% 29.66 in 10.0 mi West 9.2 mph - N/A   Light Drizzle
2:15 AM 33.8 °F 27.0 °F 28.4 °F 81% 29.68 in 10.0 mi West 8.1 mph 18.4 mph N/A   Light Drizzle
2:35 AM 33.8 °F 25.3 °F 28.4 °F 81% 29.69 in 10.0 mi West 11.5 mph 20.7 mph N/A   Light Drizzle
2:55 AM 32.0 °F 23.0 °F 26.6 °F 80% 29.70 in 10.0 mi WNW 11.5 mph 17.3 mph N/A   Overcast
3:15 AM 32.0 °F 23.0 °F 26.6 °F 80% 29.71 in 10.0 mi West 11.5 mph 20.7 mph N/A   Overcast
3:35 AM 32.0 °F 22.5 °F 26.6 °F 80% 29.72 in 10.0 mi WNW 12.7 mph 19.6 mph N/A   Overcast
3:55 AM 32.0 °F 24.2 °F 26.6 °F 80% 29.73 in 10.0 mi WNW 9.2 mph 16.1 mph N/A   Overcast
4:15 AM 32.0 °F 23.6 °F 24.8 °F 75% 29.74 in 10.0 mi West 10.4 mph 17.3 mph N/A   Mostly Cloudy
4:35 AM 32.0 °F 24.8 °F 24.8 °F 75% 29.75 in 10.0 mi West 8.1 mph 21.9 mph N/A   Partly Cloudy
4:55 AM 32.0 °F 22.5 °F 23.0 °F 69% 29.76 in 10.0 mi West 12.7 mph 21.9 mph N/A   Mostly Cloudy
5:15 AM 32.0 °F 23.6 °F 23.0 °F 69% 29.78 in 10.0 mi WNW 10.4 mph 20.7 mph N/A   Overcast
5:35 AM 32.0 °F 21.6 °F 23.0 °F 69% 29.79 in 10.0 mi West 15.0 mph 27.6 mph N/A   Scattered Clouds
5:55 AM 32.0 °F 22.5 °F 23.0 °F 69% 29.79 in 10.0 mi WNW 12.7 mph 20.7 mph N/A   Clear
6:15 AM 32.0 °F 22.5 °F 23.0 °F 69% 29.80 in 10.0 mi WNW 12.7 mph 19.6 mph N/A   Clear
6:35 AM 30.2 °F 20.2 °F 21.2 °F 69% 29.80 in 10.0 mi WNW 12.7 mph 23.0 mph N/A   Clear
6:55 AM 32.0 °F 22.5 °F 21.2 °F 64% 29.81 in 10.0 mi WNW 12.7 mph 23.0 mph N/A   Clear
7:15 AM 32.0 °F 23.6 °F 21.2 °F 64% 29.82 in 10.0 mi West 10.4 mph 19.6 mph N/A   Clear
7:35 AM 30.2 °F 21.9 °F 21.2 °F 69% 29.84 in 10.0 mi West 9.2 mph 16.1 mph N/A   Clear
7:55 AM 32.0 °F 25.6 °F 21.2 °F 64% 29.85 in 10.0 mi West 6.9 mph - N/A   Clear
8:35 AM 32.0 °F 23.6 °F 21.2 °F 64% 29.88 in 10.0 mi West 10.4 mph 17.3 mph N/A   Clear
8:55 AM 32.0 °F 23.6 °F 21.2 °F 64% 29.89 in 10.0 mi West 10.4 mph 21.9 mph N/A   Clear
9:15 AM 32.0 °F 22.5 °F 21.2 °F 64% 29.90 in 10.0 mi West 12.7 mph 18.4 mph N/A   Clear
9:35 AM 32.0 °F 23.0 °F 21.2 °F 64% 29.90 in 10.0 mi West 11.5 mph 20.7 mph N/A   Clear
9:55 AM 33.8 °F 24.8 °F 21.2 °F 60% 29.91 in 10.0 mi West 12.7 mph 19.6 mph N/A   Clear
10:15 AM 33.8 °F 23.9 °F 21.2 °F 60% 29.90 in 10.0 mi West 15.0 mph 21.9 mph N/A   Clear
10:35 AM 33.8 °F 24.8 °F 21.2 °F 60% 29.90 in 10.0 mi WNW 12.7 mph 23.0 mph N/A   Clear
10:55 AM 35.6 °F 27.1 °F 21.2 °F 56% 29.90 in 10.0 mi WNW 12.7 mph 23.0 mph N/A   Clear
11:15 AM 35.6 °F 27.5 °F 23.0 °F 60% 29.90 in 10.0 mi WNW 11.5 mph 19.6 mph N/A   Clear
11:35 AM 37.4 °F 30.3 °F 23.0 °F 56% 29.89 in 10.0 mi West 10.4 mph 18.4 mph N/A   Clear
11:55 AM 37.4 °F 30.3 °F 23.0 °F 56% 29.89 in 10.0 mi West 10.4 mph - N/A   Clear
12:15 PM 37.4 °F 32.1 °F 23.0 °F 56% 29.89 in 10.0 mi West 6.9 mph 18.4 mph N/A   Clear
12:35 PM 37.4 °F 30.3 °F 23.0 °F 56% 29.89 in 10.0 mi West 10.4 mph 17.3 mph N/A   Clear
12:55 PM 37.4 °F 29.3 °F 23.0 °F 56% 29.89 in 10.0 mi West 12.7 mph 20.7 mph N/A   Clear
1:15 PM 37.4 °F 29.3 °F 23.0 °F 56% 29.89 in 10.0 mi West 12.7 mph 21.9 mph N/A   Clear
1:55 PM 37.4 °F 30.3 °F 23.0 °F 56% 29.90 in 10.0 mi West 10.4 mph 17.3 mph N/A   Clear
2:15 PM 37.4 °F 29.8 °F 23.0 °F 56% 29.91 in 10.0 mi West 11.5 mph - N/A   Clear
2:35 PM 37.4 °F 29.8 °F 23.0 °F 56% 29.91 in 10.0 mi WNW 11.5 mph 17.3 mph N/A   Clear
2:55 PM 37.4 °F 30.3 °F 24.8 °F 60% 29.92 in 10.0 mi WNW 10.4 mph 16.1 mph N/A   Clear
3:15 PM 37.4 °F 32.1 °F 24.8 °F 60% 29.93 in 10.0 mi West 6.9 mph - N/A   Clear
3:35 PM 37.4 °F 30.8 °F 23.0 °F 56% 29.93 in 10.0 mi WNW 9.2 mph - N/A   Clear
3:55 PM 35.6 °F 32.8 °F 24.8 °F 65% 29.94 in 10.0 mi West 3.5 mph - N/A   Clear
4:15 PM 35.6 °F 29.9 °F 24.8 °F 65% 29.95 in 10.0 mi West 6.9 mph - N/A   Clear
4:35 PM 35.6 °F 30.7 °F 24.8 °F 65% 29.96 in 10.0 mi West 5.8 mph - N/A   Clear
4:55 PM 33.8 °F 27.7 °F 24.8 °F 70% 29.97 in 10.0 mi West 6.9 mph - N/A   Clear
5:15 PM 33.8 °F 28.6 °F 24.8 °F 70% 29.97 in 10.0 mi West 5.8 mph - N/A   Clear
5:35 PM 33.8 °F 30.8 °F 24.8 °F 70% 29.98 in 10.0 mi West 3.5 mph - N/A   Clear
5:55 PM 32.0 °F 26.4 °F 24.8 °F 75% 29.99 in 10.0 mi West 5.8 mph - N/A   Clear
6:15 PM 33.8 °F 28.6 °F 24.8 °F 70% 29.99 in 10.0 mi West 5.8 mph - N/A   Clear
6:35 PM 33.8 °F 27.7 °F 24.8 °F 70% 30.00 in 10.0 mi West 6.9 mph - N/A   Clear
6:55 PM 32.0 °F 26.4 °F 24.8 °F 75% 30.00 in 10.0 mi West 5.8 mph - N/A   Clear
7:15 PM 32.0 °F 25.6 °F 24.8 °F 75% 30.01 in 10.0 mi West 6.9 mph - N/A   Clear
7:55 PM 32.0 °F 26.4 °F 24.8 °F 75% 30.01 in 10.0 mi West 5.8 mph - N/A   Clear
8:15 PM 32.0 °F 28.7 °F 24.8 °F 75% 30.01 in 10.0 mi West 3.5 mph - N/A   Clear
8:35 PM 32.0 °F 27.5 °F 26.6 °F 80% 30.01 in 10.0 mi West 4.6 mph - N/A   Clear
8:55 PM 32.0 °F 28.7 °F 26.6 °F 80% 30.01 in 10.0 mi West 3.5 mph - N/A   Clear
9:15 PM 32.0 °F 27.5 °F 24.8 °F 75% 30.01 in 10.0 mi West 4.6 mph - N/A   Clear
9:55 PM 32.0 °F 28.7 °F 26.6 °F 80% 30.01 in 10.0 mi WSW 3.5 mph - N/A   Clear
10:15 PM 32.0 °F - 26.6 °F 80% 30.01 in 10.0 mi Calm Calm - N/A   Clear
10:35 PM 30.2 °F 26.7 °F 26.6 °F 86% 30.02 in 10.0 mi West 3.5 mph - N/A   Clear
10:55 PM 30.2 °F 26.7 °F 26.6 °F 86% 30.03 in 10.0 mi SW 3.5 mph - N/A   Clear
11:15 PM 30.2 °F 26.7 °F 26.6 °F 86% 30.02 in 10.0 mi WSW 3.5 mph - N/A   Clear
11:35 PM 30.2 °F 26.7 °F 26.6 °F 86% 30.02 in 10.0 mi WSW 3.5 mph - N/A   Clear
11:55 PM 30.2 °F 26.7 °F 26.6 °F 86% 30.02 in 10.0 mi WSW 3.5 mph - N/A   Clear